Главная страница
METAR-TAF:

METAR-TAF

Аэропорты :

Якутск, Россия

широта: 62-01N, долгота: 129-43E, высота над уровнем моря: 103 м

Текущие метеонаблюдения

Эта сводка был подготовлена 29 минут назад, в 03:30 UTC
Ветер 2 Узел от юго-юго-восточный
Температура -40°C
Влажность 65%
Давление 1032 hPa
Видимость: 0900 м
небольшой снег, туман

METAR: UEEE 240330Z 16001MPS 1300 0900NE R23L/2000N -SN FG NSC M40/M44 Q1032 R23L/490150 NOSIG RMK QFE765

Время: 12:59 (03:59 UTC)

Прогноз

Эта сводка был подготовлена 1 час и 59 минут назад, в 02:00 UTC
Прогноз действительный с 24-го 03 UTC до 25-го 09 UTC
Ветер 6 Узел от южный-юго-западный
Видимость: 2100 м
Сплошная облачность на высоте 7000 фута
небольшой снег, дымка
временами
С 24-го 03 UTC до 24-го 12 UTC
Видимость: 0700 м
на высоте 400 фута
туман

TAF: UEEE 240200Z 2403/2509 20003MPS 2100 -SN BR OVC070 TEMPO 2403/2412 0700 FG VV004

Метеонаблюдения и прогнозы для более 4000 аэропортов (сводки METAR и TAF).

Имеющиеся станции представлены на карте желтыми и красными точками.

Чтобы увидеть название станции, наведите на нее мышь.

Затем щелкните, чтобы увидеть метеонаблюдения и метеопрогнозы.

Управление картой: чтобы увеличить масштаб, щелкните зеленые кнопки с черным крестиком; чтобы уменьшить масштаб, щелкните зеленую кнопку с тире; для просмотра соседних карт щелкайте зеленые стрелки.


METAR-TAF: